createdAt,value
2018-05-12T00:00:23.166Z,13.43
2018-05-12T00:02:50.562Z,13.17
2018-05-12T00:05:17.977Z,13.90
2018-05-12T00:07:45.357Z,14.80
2018-05-12T00:10:12.745Z,14.40
2018-05-12T00:12:40.131Z,13.17
2018-05-12T00:15:07.523Z,13.60
2018-05-12T00:17:34.918Z,14.03
2018-05-12T00:20:02.303Z,13.60
2018-05-12T00:22:29.705Z,13.23
2018-05-12T00:24:57.091Z,14.07
2018-05-12T00:27:24.486Z,13.80
2018-05-12T00:29:51.883Z,13.60
2018-05-12T00:32:19.258Z,14.10
2018-05-12T00:34:46.661Z,14.70
2018-05-12T00:37:14.045Z,13.10
2018-05-12T00:39:41.439Z,13.40
2018-05-12T00:42:08.828Z,13.87
2018-05-12T00:44:36.222Z,13.77
2018-05-12T00:47:03.615Z,13.97
2018-05-12T00:49:31.006Z,13.63
2018-05-12T00:51:58.458Z,14.30
2018-05-12T00:54:25.848Z,14.43
2018-05-12T00:56:53.239Z,13.93
2018-05-12T00:59:20.634Z,13.63
2018-05-12T01:01:48.022Z,13.60
2018-05-12T01:04:15.420Z,14.30
2018-05-12T01:06:42.816Z,13.23
2018-05-12T01:09:10.209Z,13.20
2018-05-12T01:11:37.591Z,15.00
2018-05-12T01:14:04.995Z,13.60
2018-05-12T01:16:32.387Z,14.60
2018-05-12T01:18:59.781Z,15.53
2018-05-12T01:21:27.174Z,14.27
2018-05-12T01:23:54.567Z,13.17
2018-05-12T01:26:21.961Z,14.10
2018-05-12T01:28:49.352Z,14.10
2018-05-12T01:31:16.743Z,13.67
2018-05-12T01:33:44.133Z,14.50
2018-05-12T01:36:11.523Z,13.40
2018-05-12T01:38:38.916Z,14.90
2018-05-12T01:41:06.311Z,14.20
2018-05-12T01:43:33.695Z,14.30
2018-05-12T01:46:01.091Z,13.43
2018-05-12T01:48:28.479Z,14.47
2018-05-12T01:50:55.886Z,14.63
2018-05-12T01:53:23.276Z,14.73
2018-05-12T01:55:50.667Z,15.20
2018-05-12T01:58:18.063Z,14.17
2018-05-12T02:00:45.451Z,14.77
2018-05-12T02:03:12.863Z,14.23
2018-05-12T02:05:40.251Z,13.93
2018-05-12T02:08:07.647Z,13.90
2018-05-12T02:10:35.073Z,14.60
2018-05-12T02:13:02.451Z,13.63
2018-05-12T02:15:29.839Z,14.00
2018-05-12T02:17:57.237Z,15.30
2018-05-12T02:20:24.627Z,14.97
2018-05-12T02:22:52.123Z,15.97
2018-05-12T02:25:19.520Z,15.10
2018-05-12T02:27:46.911Z,15.43
2018-05-12T02:30:14.303Z,14.90
2018-05-12T02:32:41.699Z,15.07
2018-05-12T02:35:09.078Z,15.73
2018-05-12T02:37:36.467Z,15.63
2018-05-12T02:40:03.863Z,15.53
2018-05-12T02:42:31.247Z,15.50
2018-05-12T02:44:58.641Z,15.17
2018-05-12T02:47:26.031Z,15.10
2018-05-12T02:49:53.427Z,15.33
2018-05-12T02:52:20.812Z,14.50
2018-05-12T02:54:48.203Z,14.50
2018-05-12T02:57:15.595Z,15.10
2018-05-12T02:59:42.988Z,15.60
2018-05-12T03:02:10.378Z,14.47
2018-05-12T03:04:37.763Z,14.73
2018-05-12T03:07:05.158Z,15.60
2018-05-12T03:09:32.546Z,15.10
2018-05-12T03:11:59.938Z,15.47
2018-05-12T03:14:27.325Z,15.60
2018-05-12T03:16:54.710Z,16.07
2018-05-12T03:19:22.107Z,15.70
2018-05-12T03:21:49.495Z,15.10
2018-05-12T03:24:16.891Z,15.57
2018-05-12T03:26:44.274Z,16.23
2018-05-12T03:29:11.659Z,15.70
2018-05-12T03:31:39.055Z,16.03
2018-05-12T03:34:06.441Z,15.50
2018-05-12T03:36:33.835Z,15.90
2018-05-12T03:39:01.227Z,16.67
2018-05-12T03:41:28.613Z,16.00
2018-05-12T03:43:55.994Z,15.70
2018-05-12T03:46:23.383Z,15.53
2018-05-12T03:48:50.786Z,16.47
2018-05-12T03:51:18.174Z,16.07
2018-05-12T03:53:45.558Z,17.30
2018-05-12T03:56:12.950Z,16.03
2018-05-12T03:58:40.343Z,15.33
2018-05-12T04:01:07.743Z,15.63
2018-05-12T04:03:35.123Z,15.03
2018-05-12T04:06:14.478Z,15.73
2018-05-12T04:08:53.662Z,15.17
2018-05-12T04:11:32.903Z,13.67
2018-05-12T04:14:00.288Z,15.10
2018-05-12T04:16:28.507Z,14.83
2018-05-12T04:18:55.895Z,13.83
2018-05-12T04:21:23.284Z,14.57
2018-05-12T04:23:50.707Z,13.53
2018-05-12T04:26:18.095Z,14.43
2018-05-12T04:28:45.487Z,14.20
2018-05-12T04:31:12.867Z,15.07
2018-05-12T04:33:40.269Z,14.30
2018-05-12T04:36:07.650Z,14.63
2018-05-12T04:38:35.035Z,14.53
2018-05-12T04:41:02.423Z,14.80
2018-05-12T04:43:29.811Z,14.63
2018-05-12T04:45:57.211Z,15.13
2018-05-12T04:48:24.596Z,15.67
2018-05-12T04:50:52.059Z,13.63
2018-05-12T04:53:19.384Z,15.10
2018-05-12T04:55:46.767Z,15.27
2018-05-12T04:58:14.159Z,14.80
2018-05-12T05:00:41.538Z,16.10
2018-05-12T05:03:08.932Z,15.10
2018-05-12T05:05:36.311Z,14.80
2018-05-12T05:08:03.706Z,15.50
2018-05-12T05:10:31.094Z,14.90
2018-05-12T05:12:58.486Z,15.00
2018-05-12T05:15:25.875Z,15.50
2018-05-12T05:17:53.254Z,15.40
2018-05-12T05:20:20.664Z,15.10
2018-05-12T05:22:48.200Z,14.90
2018-05-12T05:25:15.640Z,14.10
2018-05-12T05:27:43.014Z,15.50
2018-05-12T05:30:10.405Z,14.57
2018-05-12T05:32:37.820Z,14.57
2018-05-12T05:35:05.203Z,14.60
2018-05-12T05:37:32.599Z,13.97
2018-05-12T05:39:59.983Z,14.17
2018-05-12T05:42:27.385Z,14.47
2018-05-12T05:44:54.772Z,13.83
2018-05-12T05:47:22.155Z,13.43
2018-05-12T05:49:49.556Z,15.40
2018-05-12T05:52:16.934Z,14.70
2018-05-12T05:54:44.322Z,15.40
2018-05-12T05:57:11.710Z,15.10
2018-05-12T05:59:39.135Z,14.23
2018-05-12T06:02:06.515Z,15.00
2018-05-12T06:04:33.903Z,15.57
2018-05-12T06:07:01.371Z,15.57
2018-05-12T06:09:28.688Z,15.27
2018-05-12T06:11:56.087Z,15.50
2018-05-12T06:14:23.633Z,15.60
2018-05-12T06:16:51.023Z,15.10
2018-05-12T06:19:18.410Z,15.07
2018-05-12T06:21:45.799Z,15.30
2018-05-12T06:24:13.199Z,16.10
2018-05-12T06:26:40.587Z,15.50
2018-05-12T06:29:07.983Z,14.60
2018-05-12T06:31:35.370Z,15.47
2018-05-12T06:34:02.772Z,15.23
2018-05-12T06:36:30.163Z,16.00
2018-05-12T06:38:57.555Z,15.23
2018-05-12T06:41:24.994Z,15.10
2018-05-12T06:43:52.381Z,15.10
2018-05-12T06:46:19.771Z,17.67
2018-05-12T06:48:47.159Z,17.03
2018-05-12T06:51:14.558Z,16.77
2018-05-12T06:53:41.944Z,17.53
2018-05-12T06:56:09.332Z,16.70
2018-05-12T06:58:36.784Z,17.07
2018-05-12T07:01:04.175Z,17.03
2018-05-12T07:03:31.565Z,18.87
2018-05-12T07:05:59.004Z,17.10
2018-05-12T07:08:26.388Z,16.90
2018-05-12T07:10:53.828Z,16.90
2018-05-12T07:13:21.197Z,16.90
2018-05-12T07:15:48.587Z,16.53
2018-05-12T07:18:15.975Z,18.67
2018-05-12T07:20:43.358Z,18.10
2018-05-12T07:23:11.682Z,17.77
2018-05-12T07:25:39.067Z,17.53
2018-05-12T07:28:06.467Z,17.00
2018-05-12T07:30:33.859Z,17.80
2018-05-12T07:33:01.245Z,18.23
2018-05-12T07:35:28.634Z,16.17
2018-05-12T07:37:56.045Z,17.20
2018-05-12T07:40:23.430Z,16.17
2018-05-12T07:42:50.823Z,17.30
2018-05-12T07:45:18.219Z,17.30
2018-05-12T07:47:45.602Z,17.27
2018-05-12T07:50:13.003Z,17.67
2018-05-12T07:52:40.382Z,17.23
2018-05-12T07:55:07.766Z,18.67
2018-05-12T07:57:35.162Z,16.70
2018-05-12T08:00:02.554Z,16.80
2018-05-12T08:02:29.953Z,18.20
2018-05-12T08:04:57.339Z,15.90
2018-05-12T08:07:24.722Z,16.07
2018-05-12T08:09:52.116Z,15.00
2018-05-12T08:12:19.501Z,15.70
2018-05-12T08:14:46.899Z,15.20
2018-05-12T08:17:14.278Z,15.37
2018-05-12T08:19:41.940Z,14.63
2018-05-12T08:22:09.327Z,15.67
2018-05-12T08:24:36.814Z,15.57
2018-05-12T08:27:04.213Z,14.50
2018-05-12T08:29:31.703Z,15.17
2018-05-12T08:31:59.142Z,16.57
2018-05-12T08:34:26.526Z,13.80
2018-05-12T08:36:53.936Z,12.50
2018-05-12T08:39:21.315Z,12.93
2018-05-12T08:41:48.705Z,14.70
2018-05-12T08:44:16.239Z,13.70
2018-05-12T08:46:43.622Z,12.77
2018-05-12T08:49:11.015Z,12.50
2018-05-12T08:51:38.423Z,11.97
2018-05-12T08:54:05.847Z,11.40
2018-05-12T08:56:33.486Z,13.23
2018-05-12T08:59:00.896Z,13.50
2018-05-12T09:01:28.374Z,13.40
2018-05-12T09:03:55.679Z,12.40
2018-05-12T09:06:23.071Z,11.93
2018-05-12T09:08:50.458Z,12.87
2018-05-12T09:11:17.854Z,10.60
2018-05-12T09:13:45.238Z,12.33
2018-05-12T09:16:12.646Z,12.07
2018-05-12T09:18:40.036Z,12.50
2018-05-12T09:21:07.418Z,11.50
2018-05-12T09:23:34.814Z,11.77
2018-05-12T09:26:02.204Z,12.00
2018-05-12T09:28:29.594Z,12.00
2018-05-12T09:30:56.988Z,11.47
2018-05-12T09:33:24.470Z,11.77
2018-05-12T09:35:51.854Z,12.30
2018-05-12T09:38:19.242Z,12.40
2018-05-12T09:40:46.686Z,12.30
2018-05-12T09:43:14.091Z,12.60
2018-05-12T09:45:41.480Z,11.20
2018-05-12T09:48:08.867Z,11.90
2018-05-12T09:50:36.298Z,13.77
2018-05-12T09:53:03.694Z,13.20
2018-05-12T09:55:31.086Z,13.17
2018-05-12T09:57:58.475Z,12.60
2018-05-12T10:00:25.867Z,12.30
2018-05-12T10:02:53.258Z,11.80
2018-05-12T10:05:20.659Z,12.70
2018-05-12T10:07:48.036Z,12.53
2018-05-12T10:10:15.418Z,12.50
2018-05-12T10:12:42.840Z,12.00
2018-05-12T10:15:10.218Z,11.50
2018-05-12T10:17:37.641Z,12.40
2018-05-12T10:20:05.127Z,12.10
2018-05-12T10:22:32.519Z,12.40
2018-05-12T10:24:59.950Z,12.80
2018-05-12T10:27:27.383Z,12.40
2018-05-12T10:29:54.790Z,11.77
2018-05-12T10:32:22.221Z,12.60
2018-05-12T10:34:49.609Z,12.63
2018-05-12T10:37:17.747Z,12.33
2018-05-12T10:39:45.197Z,12.60
2018-05-12T10:42:12.574Z,11.90
2018-05-12T10:44:39.963Z,11.97
2018-05-12T10:47:07.356Z,13.87
2018-05-12T10:49:34.755Z,12.33
2018-05-12T10:52:02.145Z,12.90
2018-05-12T10:54:29.564Z,13.70
2018-05-12T10:56:56.946Z,13.00
2018-05-12T10:59:24.330Z,11.90
2018-05-12T11:01:51.731Z,13.20
2018-05-12T11:04:19.115Z,12.70
2018-05-12T11:06:46.511Z,12.83
2018-05-12T11:09:13.894Z,12.17
2018-05-12T11:11:41.291Z,11.70
2018-05-12T11:14:08.682Z,12.23
2018-05-12T11:16:36.090Z,13.77
2018-05-12T11:19:03.491Z,12.30
2018-05-12T11:21:30.953Z,12.20
2018-05-12T11:23:58.274Z,11.67
2018-05-12T11:26:25.655Z,11.50
2018-05-12T11:28:53.094Z,11.40
2018-05-12T11:31:22.956Z,11.87
2018-05-12T11:33:50.359Z,12.40
2018-05-12T11:36:17.815Z,12.73
2018-05-12T11:38:45.304Z,14.17
2018-05-12T11:41:12.608Z,13.30
2018-05-12T11:43:40.003Z,12.90
2018-05-12T11:46:07.391Z,12.60
2018-05-12T11:48:34.790Z,13.37
2018-05-12T11:51:02.162Z,14.23
2018-05-12T11:53:29.547Z,13.57
2018-05-12T11:55:56.947Z,13.13
2018-05-12T11:58:24.402Z,13.10
2018-05-12T12:00:51.727Z,12.90
2018-05-12T12:03:19.107Z,13.60
2018-05-12T12:05:46.503Z,13.27
2018-05-12T12:08:13.882Z,13.77
2018-05-12T12:10:41.282Z,11.93
2018-05-12T12:13:08.666Z,12.90
2018-05-12T12:15:36.055Z,12.60
2018-05-12T12:18:03.442Z,13.33
2018-05-12T12:20:30.830Z,13.13
2018-05-12T12:22:58.264Z,12.10
2018-05-12T12:25:25.675Z,13.10
2018-05-12T12:27:53.120Z,12.80
2018-05-12T12:30:20.540Z,12.63
2018-05-12T12:32:47.923Z,12.53
2018-05-12T12:35:15.311Z,12.03
2018-05-12T12:37:42.710Z,11.83
2018-05-12T12:40:10.092Z,12.23
2018-05-12T12:42:37.474Z,12.70
2018-05-12T12:45:05.130Z,13.50
2018-05-12T12:47:32.437Z,12.47
2018-05-12T12:49:59.819Z,12.50
2018-05-12T12:52:27.194Z,12.17
2018-05-12T12:54:54.587Z,11.90
2018-05-12T12:57:21.971Z,13.00
2018-05-12T12:59:49.364Z,12.47
2018-05-12T13:02:16.747Z,13.00
2018-05-12T13:04:44.145Z,12.03
2018-05-12T13:07:11.553Z,12.40
2018-05-12T13:09:38.918Z,12.20
2018-05-12T13:12:06.310Z,11.33
2018-05-12T13:14:33.695Z,12.80
2018-05-12T13:17:01.075Z,13.60
2018-05-12T13:19:28.460Z,13.00
2018-05-12T13:21:55.855Z,12.93
2018-05-12T13:24:23.227Z,13.30
2018-05-12T13:26:50.619Z,12.97
2018-05-12T13:29:18.003Z,12.80
2018-05-12T13:31:45.390Z,12.90
2018-05-12T13:34:12.971Z,11.93
2018-05-12T13:36:40.355Z,12.57
2018-05-12T13:39:07.742Z,12.33
2018-05-12T13:41:35.120Z,12.83
2018-05-12T13:44:02.512Z,12.27
2018-05-12T13:46:29.941Z,12.57
2018-05-12T13:48:57.326Z,12.07
2018-05-12T13:51:24.771Z,11.90
2018-05-12T13:53:52.143Z,14.37
2018-05-12T13:56:19.534Z,12.23
2018-05-12T13:58:46.915Z,11.93
2018-05-12T14:01:14.305Z,12.13
2018-05-12T14:03:41.690Z,13.03
2018-05-12T14:06:09.075Z,12.87
2018-05-12T14:08:36.463Z,13.57
2018-05-12T14:11:03.846Z,13.20
2018-05-12T14:13:31.235Z,13.43
2018-05-12T14:15:58.627Z,13.07
2018-05-12T14:18:26.011Z,12.30
2018-05-12T14:20:53.848Z,13.00
2018-05-12T14:23:21.227Z,12.73
2018-05-12T14:25:48.615Z,12.63
2018-05-12T14:28:16.009Z,13.30
2018-05-12T14:30:43.398Z,12.73
2018-05-12T14:33:10.811Z,12.33
2018-05-12T14:35:38.196Z,13.57
2018-05-12T14:38:05.652Z,13.17
2018-05-12T14:40:33.039Z,12.30
2018-05-12T14:43:00.451Z,12.37
2018-05-12T14:45:27.892Z,11.60
2018-05-12T14:47:55.378Z,12.50
2018-05-12T14:50:22.763Z,13.00
2018-05-12T14:52:50.164Z,12.70
2018-05-12T14:55:17.556Z,12.80
2018-05-12T14:57:44.931Z,12.30
2018-05-12T15:00:12.322Z,13.10
2018-05-12T15:02:39.707Z,12.30
2018-05-12T15:05:07.099Z,11.97
2018-05-12T15:07:34.491Z,12.90
2018-05-12T15:10:01.881Z,12.53
2018-05-12T15:12:29.288Z,12.03
2018-05-12T15:14:56.818Z,11.83
2018-05-12T15:17:24.187Z,12.50
2018-05-12T15:19:51.577Z,12.53
2018-05-12T15:22:18.963Z,12.10
2018-05-12T15:24:46.339Z,12.63
2018-05-12T15:27:13.740Z,12.80
2018-05-12T15:29:41.134Z,12.50
2018-05-12T15:32:09.227Z,12.50
2018-05-12T15:34:36.606Z,13.20
2018-05-12T15:37:03.994Z,12.83
2018-05-12T15:39:31.383Z,12.93
2018-05-12T15:41:58.759Z,11.73
2018-05-12T15:44:26.150Z,12.80
2018-05-12T15:46:53.535Z,12.30
2018-05-12T15:49:20.923Z,14.80
2018-05-12T15:51:48.307Z,14.10
2018-05-12T15:54:15.698Z,13.27
2018-05-12T15:56:43.082Z,13.23
2018-05-12T15:59:10.470Z,12.20
2018-05-12T16:01:37.850Z,12.93
2018-05-12T16:04:05.252Z,13.00
2018-05-12T16:06:32.709Z,13.70
2018-05-12T16:09:00.091Z,13.13
2018-05-12T16:11:27.476Z,14.43
2018-05-12T16:13:54.859Z,12.40
2018-05-12T16:16:22.248Z,12.37
2018-05-12T16:18:49.663Z,13.77
2018-05-12T16:21:17.055Z,13.60
2018-05-12T16:23:44.436Z,13.03
2018-05-12T16:26:11.827Z,13.47
2018-05-12T16:28:39.207Z,13.13
2018-05-12T16:31:06.595Z,13.43
2018-05-12T16:33:33.983Z,13.23
2018-05-12T16:36:01.411Z,13.50
2018-05-12T16:38:28.798Z,14.17
2018-05-12T16:40:56.190Z,12.70
2018-05-12T16:43:23.567Z,13.63
2018-05-12T16:45:50.954Z,12.50
2018-05-12T16:48:18.359Z,13.93
2018-05-12T16:50:45.859Z,12.30
2018-05-12T16:53:13.140Z,12.30
2018-05-12T16:55:40.567Z,12.77
2018-05-12T16:58:07.938Z,11.97
2018-05-12T17:00:35.343Z,12.43
2018-05-12T17:03:02.732Z,12.47
2018-05-12T17:05:30.111Z,12.37
2018-05-12T17:07:57.492Z,13.30
2018-05-12T17:10:24.879Z,12.53
2018-05-12T17:12:52.259Z,13.30
2018-05-12T17:15:19.652Z,13.30
2018-05-12T17:17:47.035Z,12.60
2018-05-12T17:20:14.428Z,12.60
2018-05-12T17:22:41.814Z,13.23
2018-05-12T17:25:09.195Z,12.83
2018-05-12T17:27:36.579Z,14.30
2018-05-12T17:30:03.970Z,12.87
2018-05-12T17:32:31.355Z,13.40
2018-05-12T17:34:58.734Z,12.53
2018-05-12T17:37:26.127Z,12.80
2018-05-12T17:39:53.510Z,12.73
2018-05-12T17:42:20.899Z,12.10
2018-05-12T17:44:48.283Z,11.80
2018-05-12T17:47:15.670Z,12.40
2018-05-12T17:49:43.064Z,13.40
2018-05-12T17:52:10.453Z,14.30
2018-05-12T17:54:37.840Z,13.00
2018-05-12T17:57:05.222Z,12.87
2018-05-12T17:59:32.615Z,13.00
2018-05-12T18:02:00.003Z,13.37
2018-05-12T18:04:27.390Z,13.20
2018-05-12T18:06:54.771Z,13.43
2018-05-12T18:09:22.163Z,13.80
2018-05-12T18:11:49.550Z,13.60
2018-05-12T18:14:16.927Z,13.63
2018-05-12T18:16:44.314Z,14.27
2018-05-12T18:19:11.694Z,14.07
2018-05-12T18:21:39.087Z,15.03
2018-05-12T18:24:06.483Z,14.60
2018-05-12T18:26:33.876Z,14.20
2018-05-12T18:29:01.266Z,13.47
2018-05-12T18:31:28.650Z,13.50
2018-05-12T18:33:56.040Z,13.40
2018-05-12T18:36:23.419Z,13.60
2018-05-12T18:38:50.817Z,13.97
2018-05-12T18:41:18.209Z,13.87
2018-05-12T18:43:45.594Z,15.10
2018-05-12T18:46:12.974Z,13.23
2018-05-12T18:48:40.367Z,12.90
2018-05-12T18:51:07.755Z,14.10
2018-05-12T18:53:35.150Z,14.10
2018-05-12T18:56:02.530Z,14.17
2018-05-12T18:58:29.958Z,14.07
2018-05-12T19:00:57.342Z,13.83
2018-05-12T19:03:24.726Z,14.23
2018-05-12T19:05:52.119Z,13.77
2018-05-12T19:08:19.570Z,15.93
2018-05-12T19:10:46.903Z,15.13
2018-05-12T19:13:14.283Z,15.80
2018-05-12T19:15:41.723Z,15.50
2018-05-12T19:18:09.099Z,15.57
2018-05-12T19:20:36.506Z,15.70
2018-05-12T19:23:03.948Z,15.50
2018-05-12T19:25:31.375Z,14.60
2018-05-12T19:27:58.763Z,15.50
2018-05-12T19:30:26.259Z,16.97
2018-05-12T19:32:53.623Z,15.70
2018-05-12T19:35:21.011Z,14.70
2018-05-12T19:37:48.407Z,15.87
2018-05-12T19:40:15.795Z,15.70
2018-05-12T19:42:43.179Z,14.27
2018-05-12T19:45:10.567Z,15.30
2018-05-12T19:47:38.021Z,15.43
2018-05-12T19:50:05.899Z,13.57
2018-05-12T19:52:33.256Z,14.60
2018-05-12T19:55:00.650Z,15.70
2018-05-12T19:57:28.034Z,14.63
2018-05-12T19:59:55.499Z,14.20
2018-05-12T20:02:22.875Z,14.47
2018-05-12T20:04:50.266Z,14.03
2018-05-12T20:07:17.646Z,14.10
2018-05-12T20:09:45.036Z,15.80
2018-05-12T20:12:12.415Z,13.73
2018-05-12T20:14:39.795Z,14.10
2018-05-12T20:17:07.182Z,12.97
2018-05-12T20:19:34.566Z,15.20
2018-05-12T20:22:01.963Z,14.53
2018-05-12T20:24:29.342Z,14.50
2018-05-12T20:26:56.747Z,13.63
2018-05-12T20:29:24.131Z,14.47
2018-05-12T20:31:51.518Z,13.83
2018-05-12T20:34:18.922Z,14.10
2018-05-12T20:36:46.311Z,13.37
2018-05-12T20:39:13.690Z,13.13
2018-05-12T20:41:41.090Z,13.73
2018-05-12T20:44:08.471Z,14.00
2018-05-12T20:46:35.859Z,13.83
2018-05-12T20:49:03.243Z,13.87
2018-05-12T20:51:30.622Z,14.27
2018-05-12T20:53:58.006Z,14.47
2018-05-12T20:56:25.390Z,15.83
2018-05-12T20:58:52.774Z,15.30
2018-05-12T21:01:20.158Z,14.77
2018-05-12T21:03:47.538Z,14.50
2018-05-12T21:06:14.931Z,13.90
2018-05-12T21:08:42.378Z,14.53
2018-05-12T21:11:09.794Z,14.47
2018-05-12T21:13:37.175Z,14.07
2018-05-12T21:16:04.566Z,14.60
2018-05-12T21:18:31.955Z,14.30
2018-05-12T21:20:59.335Z,14.60
2018-05-12T21:23:26.732Z,14.20
2018-05-12T21:25:54.111Z,15.00
2018-05-12T21:28:21.506Z,17.17
2018-05-12T21:30:48.887Z,14.70
2018-05-12T21:33:16.281Z,13.80
2018-05-12T21:35:43.655Z,15.67
2018-05-12T21:38:11.055Z,15.47
2018-05-12T21:40:38.435Z,14.43
2018-05-12T21:43:05.818Z,15.03
2018-05-12T21:45:33.203Z,14.20
2018-05-12T21:48:00.582Z,14.83
2018-05-12T21:50:27.978Z,14.23
2018-05-12T21:52:55.357Z,14.57
2018-05-12T21:55:22.753Z,15.03
2018-05-12T21:57:50.134Z,14.63
2018-05-12T22:00:17.653Z,14.40
2018-05-12T22:02:45.019Z,13.60
2018-05-12T22:05:12.407Z,13.67
2018-05-12T22:07:39.788Z,15.57
2018-05-12T22:10:07.178Z,14.30
2018-05-12T22:12:34.554Z,15.27
2018-05-12T22:15:01.935Z,14.67
2018-05-12T22:17:29.322Z,15.20
2018-05-12T22:19:56.806Z,15.67
2018-05-12T22:22:24.193Z,15.27
2018-05-12T22:24:51.570Z,15.27
2018-05-12T22:27:18.958Z,15.10
2018-05-12T22:29:46.339Z,15.50
2018-05-12T22:32:13.719Z,16.07
2018-05-12T22:34:41.211Z,15.87
2018-05-12T22:37:08.590Z,16.03
2018-05-12T22:39:35.979Z,16.30
2018-05-12T22:42:03.365Z,15.50
2018-05-12T22:44:30.752Z,15.30
2018-05-12T22:46:58.128Z,16.50
2018-05-12T22:49:25.528Z,15.73
2018-05-12T22:51:52.914Z,16.00
2018-05-12T22:54:20.298Z,16.13
2018-05-12T22:56:47.683Z,16.47
2018-05-12T22:59:15.076Z,16.63
2018-05-12T23:01:42.455Z,17.03
2018-05-12T23:04:09.878Z,15.70
2018-05-12T23:06:37.227Z,15.73
2018-05-12T23:09:04.607Z,16.20
2018-05-12T23:11:31.993Z,15.30
2018-05-12T23:13:59.370Z,15.73
2018-05-12T23:16:26.772Z,16.07
2018-05-12T23:18:54.151Z,15.70
2018-05-12T23:21:21.539Z,15.73
2018-05-12T23:23:48.923Z,14.50
2018-05-12T23:26:16.323Z,15.50
2018-05-12T23:28:43.711Z,14.33
2018-05-12T23:31:11.096Z,14.93
2018-05-12T23:33:38.487Z,14.43
2018-05-12T23:36:05.867Z,14.30
2018-05-12T23:38:33.252Z,15.20
2018-05-12T23:41:00.639Z,15.10
2018-05-12T23:43:28.031Z,14.67
2018-05-12T23:45:55.522Z,15.50
2018-05-12T23:48:22.914Z,14.13
2018-05-12T23:50:50.298Z,14.67
2018-05-12T23:53:17.686Z,14.10
2018-05-12T23:55:45.074Z,14.73
2018-05-12T23:58:12.484Z,13.80
